sensor_id;sensor_type;location;lat;lon;timestamp;temperature;humidity
43089;DHT22;28709;52.030;5.652;2023-05-07T00:02:21;15.10;99.90
43089;DHT22;28709;52.030;5.652;2023-05-07T00:04:48;15.00;99.90
43089;DHT22;28709;52.030;5.652;2023-05-07T00:07:14;15.00;99.90
43089;DHT22;28709;52.030;5.652;2023-05-07T00:09:40;15.00;99.90
43089;DHT22;28709;52.030;5.652;2023-05-07T00:12:06;15.00;99.90
43089;DHT22;28709;52.030;5.652;2023-05-07T00:14:32;15.00;99.90
43089;DHT22;28709;52.030;5.652;2023-05-07T00:16:57;15.00;99.90
43089;DHT22;28709;52.030;5.652;2023-05-07T00:19:23;15.00;99.90
43089;DHT22;28709;52.030;5.652;2023-05-07T00:21:49;15.00;99.90
43089;DHT22;28709;52.030;5.652;2023-05-07T00:24:14;15.00;99.90
43089;DHT22;28709;52.030;5.652;2023-05-07T00:26:40;15.00;99.90
43089;DHT22;28709;52.030;5.652;2023-05-07T00:29:06;15.00;99.90
43089;DHT22;28709;52.030;5.652;2023-05-07T00:31:31;15.00;99.90
43089;DHT22;28709;52.030;5.652;2023-05-07T00:33:57;15.00;99.90
43089;DHT22;28709;52.030;5.652;2023-05-07T00:36:22;15.00;99.90
43089;DHT22;28709;52.030;5.652;2023-05-07T00:38:48;15.00;99.90
43089;DHT22;28709;52.030;5.652;2023-05-07T00:41:14;15.00;99.90
43089;DHT22;28709;52.030;5.652;2023-05-07T00:43:40;15.00;99.90
43089;DHT22;28709;52.030;5.652;2023-05-07T00:46:06;15.00;99.90
43089;DHT22;28709;52.030;5.652;2023-05-07T00:48:32;14.90;99.90
43089;DHT22;28709;52.030;5.652;2023-05-07T00:50:57;14.90;99.90
43089;DHT22;28709;52.030;5.652;2023-05-07T00:53:23;14.90;99.90
43089;DHT22;28709;52.030;5.652;2023-05-07T00:55:49;14.90;99.90
43089;DHT22;28709;52.030;5.652;2023-05-07T00:58:15;14.90;99.90
43089;DHT22;28709;52.030;5.652;2023-05-07T01:00:41;14.90;99.90
43089;DHT22;28709;52.030;5.652;2023-05-07T01:03:07;14.90;99.90
43089;DHT22;28709;52.030;5.652;2023-05-07T01:05:32;14.90;99.90
43089;DHT22;28709;52.030;5.652;2023-05-07T01:07:58;14.90;99.90
43089;DHT22;28709;52.030;5.652;2023-05-07T01:10:25;14.80;99.90
43089;DHT22;28709;52.030;5.652;2023-05-07T01:12:51;14.80;99.90
43089;DHT22;28709;52.030;5.652;2023-05-07T01:15:17;14.80;99.90
43089;DHT22;28709;52.030;5.652;2023-05-07T01:17:44;14.80;99.90
43089;DHT22;28709;52.030;5.652;2023-05-07T01:20:10;14.70;99.90
43089;DHT22;28709;52.030;5.652;2023-05-07T01:22:37;14.70;99.90
43089;DHT22;28709;52.030;5.652;2023-05-07T01:25:04;14.80;99.90
43089;DHT22;28709;52.030;5.652;2023-05-07T01:27:30;14.70;99.90
43089;DHT22;28709;52.030;5.652;2023-05-07T01:29:56;14.80;99.90
43089;DHT22;28709;52.030;5.652;2023-05-07T01:32:29;14.80;99.90
43089;DHT22;28709;52.030;5.652;2023-05-07T01:34:55;14.80;99.90
43089;DHT22;28709;52.030;5.652;2023-05-07T01:37:23;14.80;99.90
43089;DHT22;28709;52.030;5.652;2023-05-07T01:39:50;14.80;99.90
43089;DHT22;28709;52.030;5.652;2023-05-07T01:42:16;14.80;99.90
43089;DHT22;28709;52.030;5.652;2023-05-07T01:44:41;14.80;99.90
43089;DHT22;28709;52.030;5.652;2023-05-07T01:47:08;14.90;99.90
43089;DHT22;28709;52.030;5.652;2023-05-07T01:49:34;14.90;99.90
43089;DHT22;28709;52.030;5.652;2023-05-07T01:52:00;14.90;99.90
43089;DHT22;28709;52.030;5.652;2023-05-07T01:54:26;14.90;99.90
43089;DHT22;28709;52.030;5.652;2023-05-07T01:56:59;14.90;99.90
43089;DHT22;28709;52.030;5.652;2023-05-07T01:59:25;14.90;99.90
43089;DHT22;28709;52.030;5.652;2023-05-07T02:01:51;14.90;99.90
43089;DHT22;28709;52.030;5.652;2023-05-07T02:04:17;14.80;99.90
43089;DHT22;28709;52.030;5.652;2023-05-07T02:06:43;14.80;99.90
43089;DHT22;28709;52.030;5.652;2023-05-07T02:09:08;14.80;99.90
43089;DHT22;28709;52.030;5.652;2023-05-07T02:11:34;14.80;99.90
43089;DHT22;28709;52.030;5.652;2023-05-07T02:14:00;14.80;99.90
43089;DHT22;28709;52.030;5.652;2023-05-07T02:16:26;14.80;99.90
43089;DHT22;28709;52.030;5.652;2023-05-07T02:18:51;14.80;99.90
43089;DHT22;28709;52.030;5.652;2023-05-07T02:21:17;14.80;99.90
43089;DHT22;28709;52.030;5.652;2023-05-07T02:23:43;14.90;99.90
43089;DHT22;28709;52.030;5.652;2023-05-07T02:26:08;14.80;99.90
43089;DHT22;28709;52.030;5.652;2023-05-07T02:28:34;14.90;99.90
43089;DHT22;28709;52.030;5.652;2023-05-07T02:31:05;14.80;99.90
43089;DHT22;28709;52.030;5.652;2023-05-07T02:33:31;14.80;99.90
43089;DHT22;28709;52.030;5.652;2023-05-07T02:35:59;14.80;99.90
43089;DHT22;28709;52.030;5.652;2023-05-07T02:38:30;14.80;99.90
43089;DHT22;28709;52.030;5.652;2023-05-07T02:40:55;14.80;99.90
43089;DHT22;28709;52.030;5.652;2023-05-07T02:43:21;14.80;99.90
43089;DHT22;28709;52.030;5.652;2023-05-07T02:45:47;14.80;99.90
43089;DHT22;28709;52.030;5.652;2023-05-07T02:48:12;14.80;99.90
43089;DHT22;28709;52.030;5.652;2023-05-07T02:50:38;14.70;99.90
43089;DHT22;28709;52.030;5.652;2023-05-07T02:53:03;14.70;99.90
43089;DHT22;28709;52.030;5.652;2023-05-07T02:55:29;14.70;99.90
43089;DHT22;28709;52.030;5.652;2023-05-07T02:57:55;14.60;99.90
43089;DHT22;28709;52.030;5.652;2023-05-07T03:00:21;14.70;99.90
43089;DHT22;28709;52.030;5.652;2023-05-07T03:02:47;14.60;99.90
43089;DHT22;28709;52.030;5.652;2023-05-07T03:05:12;14.60;99.90
43089;DHT22;28709;52.030;5.652;2023-05-07T03:07:39;14.60;99.90
43089;DHT22;28709;52.030;5.652;2023-05-07T03:10:06;14.60;99.90
43089;DHT22;28709;52.030;5.652;2023-05-07T03:12:32;14.60;99.90
43089;DHT22;28709;52.030;5.652;2023-05-07T03:14:57;14.60;99.90
43089;DHT22;28709;52.030;5.652;2023-05-07T03:17:23;14.50;99.90
43089;DHT22;28709;52.030;5.652;2023-05-07T03:19:49;14.50;99.90
43089;DHT22;28709;52.030;5.652;2023-05-07T03:22:14;14.50;99.90
43089;DHT22;28709;52.030;5.652;2023-05-07T03:24:40;14.50;99.90
43089;DHT22;28709;52.030;5.652;2023-05-07T03:27:06;14.50;99.90
43089;DHT22;28709;52.030;5.652;2023-05-07T03:29:31;14.50;99.90
43089;DHT22;28709;52.030;5.652;2023-05-07T03:31:57;14.50;99.90
43089;DHT22;28709;52.030;5.652;2023-05-07T03:34:23;14.50;99.90
43089;DHT22;28709;52.030;5.652;2023-05-07T03:36:49;14.60;99.90
43089;DHT22;28709;52.030;5.652;2023-05-07T03:39:14;14.60;99.90
43089;DHT22;28709;52.030;5.652;2023-05-07T03:41:40;14.60;99.90
43089;DHT22;28709;52.030;5.652;2023-05-07T03:44:06;14.50;99.90
43089;DHT22;28709;52.030;5.652;2023-05-07T03:46:33;14.60;99.90
43089;DHT22;28709;52.030;5.652;2023-05-07T03:48:59;14.60;99.90
43089;DHT22;28709;52.030;5.652;2023-05-07T03:51:24;14.60;99.90
43089;DHT22;28709;52.030;5.652;2023-05-07T03:53:51;14.60;99.90
43089;DHT22;28709;52.030;5.652;2023-05-07T03:56:18;14.50;99.90
43089;DHT22;28709;52.030;5.652;2023-05-07T03:58:45;14.50;99.90
43089;DHT22;28709;52.030;5.652;2023-05-07T04:01:11;14.50;99.90
43089;DHT22;28709;52.030;5.652;2023-05-07T04:03:37;14.50;99.90
43089;DHT22;28709;52.030;5.652;2023-05-07T04:06:03;14.50;99.90
43089;DHT22;28709;52.030;5.652;2023-05-07T04:08:29;14.50;99.90
43089;DHT22;28709;52.030;5.652;2023-05-07T04:10:58;14.50;99.90
43089;DHT22;28709;52.030;5.652;2023-05-07T04:13:24;14.60;99.90
43089;DHT22;28709;52.030;5.652;2023-05-07T04:15:51;14.60;99.90
43089;DHT22;28709;52.030;5.652;2023-05-07T04:18:17;14.60;99.90
43089;DHT22;28709;52.030;5.652;2023-05-07T04:20:43;14.60;99.90
43089;DHT22;28709;52.030;5.652;2023-05-07T04:23:09;14.60;99.90
43089;DHT22;28709;52.030;5.652;2023-05-07T04:25:34;14.60;99.90
43089;DHT22;28709;52.030;5.652;2023-05-07T04:28:01;14.60;99.90
43089;DHT22;28709;52.030;5.652;2023-05-07T04:30:27;14.60;99.90
43089;DHT22;28709;52.030;5.652;2023-05-07T04:32:52;14.60;99.90
43089;DHT22;28709;52.030;5.652;2023-05-07T04:35:18;14.60;99.90
43089;DHT22;28709;52.030;5.652;2023-05-07T04:37:44;14.60;99.90
43089;DHT22;28709;52.030;5.652;2023-05-07T04:40:10;14.70;99.90
43089;DHT22;28709;52.030;5.652;2023-05-07T04:42:36;14.60;99.90
43089;DHT22;28709;52.030;5.652;2023-05-07T04:45:02;14.60;99.90
43089;DHT22;28709;52.030;5.652;2023-05-07T04:47:28;14.60;99.90
43089;DHT22;28709;52.030;5.652;2023-05-07T04:49:53;14.70;99.90
43089;DHT22;28709;52.030;5.652;2023-05-07T04:52:19;14.60;99.90
43089;DHT22;28709;52.030;5.652;2023-05-07T04:54:44;14.70;99.90
43089;DHT22;28709;52.030;5.652;2023-05-07T04:57:10;14.60;99.90
43089;DHT22;28709;52.030;5.652;2023-05-07T04:59:36;14.60;99.90
43089;DHT22;28709;52.030;5.652;2023-05-07T05:02:01;14.60;99.90
43089;DHT22;28709;52.030;5.652;2023-05-07T05:04:29;14.60;99.90
43089;DHT22;28709;52.030;5.652;2023-05-07T05:06:55;14.60;99.90
43089;DHT22;28709;52.030;5.652;2023-05-07T05:09:21;14.50;99.90
43089;DHT22;28709;52.030;5.652;2023-05-07T05:11:47;14.60;99.90
43089;DHT22;28709;52.030;5.652;2023-05-07T05:14:12;14.60;99.90
43089;DHT22;28709;52.030;5.652;2023-05-07T05:16:38;14.60;99.90
43089;DHT22;28709;52.030;5.652;2023-05-07T05:19:04;14.60;99.90
43089;DHT22;28709;52.030;5.652;2023-05-07T05:21:30;14.50;99.90
43089;DHT22;28709;52.030;5.652;2023-05-07T05:23:56;14.50;99.90
43089;DHT22;28709;52.030;5.652;2023-05-07T05:26:21;14.50;99.90
43089;DHT22;28709;52.030;5.652;2023-05-07T05:28:47;14.60;99.90
43089;DHT22;28709;52.030;5.652;2023-05-07T05:31:13;14.60;99.90
43089;DHT22;28709;52.030;5.652;2023-05-07T05:33:39;14.60;99.90
43089;DHT22;28709;52.030;5.652;2023-05-07T05:36:06;14.70;99.90
43089;DHT22;28709;52.030;5.652;2023-05-07T05:38:32;14.70;99.90
43089;DHT22;28709;52.030;5.652;2023-05-07T05:40:57;14.70;99.90
43089;DHT22;28709;52.030;5.652;2023-05-07T05:43:23;14.70;99.90
43089;DHT22;28709;52.030;5.652;2023-05-07T05:45:49;14.70;99.90
43089;DHT22;28709;52.030;5.652;2023-05-07T05:48:14;14.70;99.90
43089;DHT22;28709;52.030;5.652;2023-05-07T05:50:42;14.70;99.90
43089;DHT22;28709;52.030;5.652;2023-05-07T05:53:07;14.70;99.90
43089;DHT22;28709;52.030;5.652;2023-05-07T05:55:33;14.80;99.90
43089;DHT22;28709;52.030;5.652;2023-05-07T05:58:02;14.80;99.90
43089;DHT22;28709;52.030;5.652;2023-05-07T06:00:29;14.80;99.90
43089;DHT22;28709;52.030;5.652;2023-05-07T06:02:55;14.80;99.90
43089;DHT22;28709;52.030;5.652;2023-05-07T06:05:21;14.80;99.90
43089;DHT22;28709;52.030;5.652;2023-05-07T06:07:46;14.90;99.90
43089;DHT22;28709;52.030;5.652;2023-05-07T06:10:12;14.80;99.90
43089;DHT22;28709;52.030;5.652;2023-05-07T06:12:38;14.90;99.90
43089;DHT22;28709;52.030;5.652;2023-05-07T06:15:04;14.90;99.90
43089;DHT22;28709;52.030;5.652;2023-05-07T06:17:29;15.00;99.90
43089;DHT22;28709;52.030;5.652;2023-05-07T06:19:55;15.00;99.90
43089;DHT22;28709;52.030;5.652;2023-05-07T06:22:21;15.00;99.90
43089;DHT22;28709;52.030;5.652;2023-05-07T06:24:47;15.10;99.90
43089;DHT22;28709;52.030;5.652;2023-05-07T06:27:13;15.10;99.90
43089;DHT22;28709;52.030;5.652;2023-05-07T06:29:38;15.20;99.90
43089;DHT22;28709;52.030;5.652;2023-05-07T06:32:11;15.20;99.90
43089;DHT22;28709;52.030;5.652;2023-05-07T06:34:37;15.20;99.90
43089;DHT22;28709;52.030;5.652;2023-05-07T06:37:03;15.20;99.90
43089;DHT22;28709;52.030;5.652;2023-05-07T06:39:29;15.30;99.90
43089;DHT22;28709;52.030;5.652;2023-05-07T06:41:54;15.30;99.90
43089;DHT22;28709;52.030;5.652;2023-05-07T06:44:20;15.30;99.90
43089;DHT22;28709;52.030;5.652;2023-05-07T06:46:46;15.30;99.90
43089;DHT22;28709;52.030;5.652;2023-05-07T06:49:14;15.20;99.90
43089;DHT22;28709;52.030;5.652;2023-05-07T06:51:41;15.10;99.90
43089;DHT22;28709;52.030;5.652;2023-05-07T06:54:06;15.00;99.90
43089;DHT22;28709;52.030;5.652;2023-05-07T06:56:33;15.00;99.90
43089;DHT22;28709;52.030;5.652;2023-05-07T06:59:00;14.90;99.90
43089;DHT22;28709;52.030;5.652;2023-05-07T07:01:26;14.90;99.90
43089;DHT22;28709;52.030;5.652;2023-05-07T07:03:51;14.90;99.90
43089;DHT22;28709;52.030;5.652;2023-05-07T07:06:17;14.80;99.90
43089;DHT22;28709;52.030;5.652;2023-05-07T07:08:43;14.90;99.90
43089;DHT22;28709;52.030;5.652;2023-05-07T07:11:09;15.00;99.90
43089;DHT22;28709;52.030;5.652;2023-05-07T07:13:35;15.10;99.90
43089;DHT22;28709;52.030;5.652;2023-05-07T07:16:01;15.20;99.90
43089;DHT22;28709;52.030;5.652;2023-05-07T07:18:27;15.30;99.90
43089;DHT22;28709;52.030;5.652;2023-05-07T07:20:53;15.40;99.90
43089;DHT22;28709;52.030;5.652;2023-05-07T07:23:18;15.60;99.90
43089;DHT22;28709;52.030;5.652;2023-05-07T07:25:44;15.70;99.90
43089;DHT22;28709;52.030;5.652;2023-05-07T07:28:10;15.70;99.90
43089;DHT22;28709;52.030;5.652;2023-05-07T07:30:37;15.70;99.90
43089;DHT22;28709;52.030;5.652;2023-05-07T07:33:03;15.70;99.90
43089;DHT22;28709;52.030;5.652;2023-05-07T07:35:29;15.70;99.90
43089;DHT22;28709;52.030;5.652;2023-05-07T07:37:55;15.70;99.90
43089;DHT22;28709;52.030;5.652;2023-05-07T07:40:21;15.70;99.90
43089;DHT22;28709;52.030;5.652;2023-05-07T07:42:47;15.70;99.90
43089;DHT22;28709;52.030;5.652;2023-05-07T07:45:12;15.80;99.90
43089;DHT22;28709;52.030;5.652;2023-05-07T07:47:41;15.70;99.90
43089;DHT22;28709;52.030;5.652;2023-05-07T07:50:07;15.80;99.90
43089;DHT22;28709;52.030;5.652;2023-05-07T07:52:33;15.90;99.90
43089;DHT22;28709;52.030;5.652;2023-05-07T07:54:59;15.80;99.90
43089;DHT22;28709;52.030;5.652;2023-05-07T07:57:25;15.80;99.90
43089;DHT22;28709;52.030;5.652;2023-05-07T07:59:51;15.80;99.90
43089;DHT22;28709;52.030;5.652;2023-05-07T08:02:17;15.90;99.90
43089;DHT22;28709;52.030;5.652;2023-05-07T08:04:43;15.90;99.90
43089;DHT22;28709;52.030;5.652;2023-05-07T08:07:09;15.90;99.90
43089;DHT22;28709;52.030;5.652;2023-05-07T08:09:36;15.90;99.90
43089;DHT22;28709;52.030;5.652;2023-05-07T08:12:02;16.00;99.90
43089;DHT22;28709;52.030;5.652;2023-05-07T08:14:28;16.00;99.90
43089;DHT22;28709;52.030;5.652;2023-05-07T08:16:54;15.90;99.90
43089;DHT22;28709;52.030;5.652;2023-05-07T08:19:20;15.90;99.90
43089;DHT22;28709;52.030;5.652;2023-05-07T08:21:47;15.90;99.90
43089;DHT22;28709;52.030;5.652;2023-05-07T08:24:14;15.90;99.90
43089;DHT22;28709;52.030;5.652;2023-05-07T08:26:40;16.00;99.90
43089;DHT22;28709;52.030;5.652;2023-05-07T08:29:06;16.00;99.90
43089;DHT22;28709;52.030;5.652;2023-05-07T08:31:31;15.90;99.90
43089;DHT22;28709;52.030;5.652;2023-05-07T08:33:58;15.90;99.90
43089;DHT22;28709;52.030;5.652;2023-05-07T08:36:24;16.00;99.90
43089;DHT22;28709;52.030;5.652;2023-05-07T08:38:51;16.20;99.90
43089;DHT22;28709;52.030;5.652;2023-05-07T08:41:17;16.30;99.90
43089;DHT22;28709;52.030;5.652;2023-05-07T08:43:46;16.50;99.90
43089;DHT22;28709;52.030;5.652;2023-05-07T08:46:19;16.50;99.90
43089;DHT22;28709;52.030;5.652;2023-05-07T08:48:48;16.60;99.90
43089;DHT22;28709;52.030;5.652;2023-05-07T08:51:17;16.70;99.90
43089;DHT22;28709;52.030;5.652;2023-05-07T08:53:43;16.80;99.90
43089;DHT22;28709;52.030;5.652;2023-05-07T08:56:09;16.90;99.90
43089;DHT22;28709;52.030;5.652;2023-05-07T08:58:35;16.90;99.90
43089;DHT22;28709;52.030;5.652;2023-05-07T09:01:09;16.80;99.90
43089;DHT22;28709;52.030;5.652;2023-05-07T09:03:35;16.70;99.90
43089;DHT22;28709;52.030;5.652;2023-05-07T09:06:01;16.90;99.90
43089;DHT22;28709;52.030;5.652;2023-05-07T09:08:27;16.90;99.90
43089;DHT22;28709;52.030;5.652;2023-05-07T09:10:53;17.10;99.90
43089;DHT22;28709;52.030;5.652;2023-05-07T09:13:19;17.20;99.90
43089;DHT22;28709;52.030;5.652;2023-05-07T09:15:45;17.60;99.90
43089;DHT22;28709;52.030;5.652;2023-05-07T09:18:12;18.00;99.90
43089;DHT22;28709;52.030;5.652;2023-05-07T09:20:39;18.40;99.90
43089;DHT22;28709;52.030;5.652;2023-05-07T09:23:06;18.70;99.90
43089;DHT22;28709;52.030;5.652;2023-05-07T09:25:33;18.80;99.90
43089;DHT22;28709;52.030;5.652;2023-05-07T09:28:04;19.10;99.90
43089;DHT22;28709;52.030;5.652;2023-05-07T09:30:31;19.40;99.90
43089;DHT22;28709;52.030;5.652;2023-05-07T09:32:58;19.70;99.90
43089;DHT22;28709;52.030;5.652;2023-05-07T09:35:25;19.90;99.90
43089;DHT22;28709;52.030;5.652;2023-05-07T09:37:57;20.10;99.90
43089;DHT22;28709;52.030;5.652;2023-05-07T09:40:28;20.10;99.90
43089;DHT22;28709;52.030;5.652;2023-05-07T09:42:54;20.10;99.90
43089;DHT22;28709;52.030;5.652;2023-05-07T09:45:27;20.30;99.90
43089;DHT22;28709;52.030;5.652;2023-05-07T09:47:58;20.40;99.90
43089;DHT22;28709;52.030;5.652;2023-05-07T09:50:28;20.70;99.90
43089;DHT22;28709;52.030;5.652;2023-05-07T09:52:56;21.10;99.90
43089;DHT22;28709;52.030;5.652;2023-05-07T09:55:22;21.30;99.90
43089;DHT22;28709;52.030;5.652;2023-05-07T09:57:52;21.50;99.90
43089;DHT22;28709;52.030;5.652;2023-05-07T10:00:22;21.70;99.90
43089;DHT22;28709;52.030;5.652;2023-05-07T10:02:49;21.60;99.90
43089;DHT22;28709;52.030;5.652;2023-05-07T10:05:18;21.60;99.90
43089;DHT22;28709;52.030;5.652;2023-05-07T10:07:44;21.60;99.90
43089;DHT22;28709;52.030;5.652;2023-05-07T10:10:10;21.60;99.90
43089;DHT22;28709;52.030;5.652;2023-05-07T10:12:36;21.20;99.90
43089;DHT22;28709;52.030;5.652;2023-05-07T10:15:08;21.00;99.90
43089;DHT22;28709;52.030;5.652;2023-05-07T10:17:36;21.00;99.90
43089;DHT22;28709;52.030;5.652;2023-05-07T10:20:02;20.90;99.90
43089;DHT22;28709;52.030;5.652;2023-05-07T10:22:32;20.90;99.90
43089;DHT22;28709;52.030;5.652;2023-05-07T10:25:00;21.10;99.90
43089;DHT22;28709;52.030;5.652;2023-05-07T10:27:29;21.30;99.90
43089;DHT22;28709;52.030;5.652;2023-05-07T10:30:27;21.30;99.90
43089;DHT22;28709;52.030;5.652;2023-05-07T10:33:03;21.40;99.90
43089;DHT22;28709;52.030;5.652;2023-05-07T10:35:36;21.50;99.90
43089;DHT22;28709;52.030;5.652;2023-05-07T10:38:03;21.30;99.90
43089;DHT22;28709;52.030;5.652;2023-05-07T10:40:31;21.30;99.90
43089;DHT22;28709;52.030;5.652;2023-05-07T10:42:58;21.30;99.90
43089;DHT22;28709;52.030;5.652;2023-05-07T10:45:28;21.40;99.90
43089;DHT22;28709;52.030;5.652;2023-05-07T10:50:36;21.30;99.90
43089;DHT22;28709;52.030;5.652;2023-05-07T10:55:47;21.40;99.90
43089;DHT22;28709;52.030;5.652;2023-05-07T10:58:24;21.50;99.90
43089;DHT22;28709;52.030;5.652;2023-05-07T11:00:56;21.60;99.90
43089;DHT22;28709;52.030;5.652;2023-05-07T11:03:22;21.70;99.90
43089;DHT22;28709;52.030;5.652;2023-05-07T11:06:08;21.80;99.90
43089;DHT22;28709;52.030;5.652;2023-05-07T11:09:04;21.90;99.90
43089;DHT22;28709;52.030;5.652;2023-05-07T11:11:46;22.20;99.90
43089;DHT22;28709;52.030;5.652;2023-05-07T11:14:14;22.40;99.90
43089;DHT22;28709;52.030;5.652;2023-05-07T11:16:41;22.80;99.90
43089;DHT22;28709;52.030;5.652;2023-05-07T11:19:08;23.00;99.90
43089;DHT22;28709;52.030;5.652;2023-05-07T11:21:38;23.00;99.90
43089;DHT22;28709;52.030;5.652;2023-05-07T11:24:06;23.10;99.90
43089;DHT22;28709;52.030;5.652;2023-05-07T11:26:46;23.00;99.90
43089;DHT22;28709;52.030;5.652;2023-05-07T11:29:14;23.10;99.90
43089;DHT22;28709;52.030;5.652;2023-05-07T11:31:40;23.00;99.90
43089;DHT22;28709;52.030;5.652;2023-05-07T11:34:06;22.90;99.90
43089;DHT22;28709;52.030;5.652;2023-05-07T11:36:33;22.90;99.90
43089;DHT22;28709;52.030;5.652;2023-05-07T11:38:59;22.90;99.90
43089;DHT22;28709;52.030;5.652;2023-05-07T11:41:36;23.00;99.90
43089;DHT22;28709;52.030;5.652;2023-05-07T11:44:02;23.10;99.90
43089;DHT22;28709;52.030;5.652;2023-05-07T11:46:28;22.90;99.90
43089;DHT22;28709;52.030;5.652;2023-05-07T11:48:55;22.80;99.90
43089;DHT22;28709;52.030;5.652;2023-05-07T11:51:23;22.80;99.90
43089;DHT22;28709;52.030;5.652;2023-05-07T11:53:49;22.80;99.90
43089;DHT22;28709;52.030;5.652;2023-05-07T11:56:17;22.80;99.90
43089;DHT22;28709;52.030;5.652;2023-05-07T11:58:43;22.90;99.90
43089;DHT22;28709;52.030;5.652;2023-05-07T12:01:11;22.90;99.90
43089;DHT22;28709;52.030;5.652;2023-05-07T12:03:39;23.00;99.90
43089;DHT22;28709;52.030;5.652;2023-05-07T12:06:08;23.00;99.90
43089;DHT22;28709;52.030;5.652;2023-05-07T12:08:36;23.00;99.90
43089;DHT22;28709;52.030;5.652;2023-05-07T12:11:03;23.10;99.90
43089;DHT22;28709;52.030;5.652;2023-05-07T12:13:29;23.00;99.90
43089;DHT22;28709;52.030;5.652;2023-05-07T12:15:55;22.90;99.90
43089;DHT22;28709;52.030;5.652;2023-05-07T12:18:22;23.00;99.90
43089;DHT22;28709;52.030;5.652;2023-05-07T12:20:48;23.20;99.90
43089;DHT22;28709;52.030;5.652;2023-05-07T12:23:15;23.20;99.90
43089;DHT22;28709;52.030;5.652;2023-05-07T12:25:42;23.20;99.90
43089;DHT22;28709;52.030;5.652;2023-05-07T12:28:18;23.20;99.90
43089;DHT22;28709;52.030;5.652;2023-05-07T12:30:45;23.10;99.90
43089;DHT22;28709;52.030;5.652;2023-05-07T12:33:11;22.90;99.90
43089;DHT22;28709;52.030;5.652;2023-05-07T12:35:40;22.80;99.90
43089;DHT22;28709;52.030;5.652;2023-05-07T12:38:13;22.80;99.90
43089;DHT22;28709;52.030;5.652;2023-05-07T12:40:41;22.90;99.90
43089;DHT22;28709;52.030;5.652;2023-05-07T12:43:07;22.90;99.90
43089;DHT22;28709;52.030;5.652;2023-05-07T12:45:37;23.00;99.90
43089;DHT22;28709;52.030;5.652;2023-05-07T12:48:04;23.20;99.90
43089;DHT22;28709;52.030;5.652;2023-05-07T12:50:33;23.30;99.90
43089;DHT22;28709;52.030;5.652;2023-05-07T12:52:59;23.40;99.90
43089;DHT22;28709;52.030;5.652;2023-05-07T12:55:25;23.40;99.90
43089;DHT22;28709;52.030;5.652;2023-05-07T12:57:51;23.40;99.90
43089;DHT22;28709;52.030;5.652;2023-05-07T13:00:32;23.70;99.90
43089;DHT22;28709;52.030;5.652;2023-05-07T13:02:58;23.90;99.90
43089;DHT22;28709;52.030;5.652;2023-05-07T13:05:24;24.30;99.90
43089;DHT22;28709;52.030;5.652;2023-05-07T13:07:53;24.60;98.40
43089;DHT22;28709;52.030;5.652;2023-05-07T13:10:20;24.50;97.50
43089;DHT22;28709;52.030;5.652;2023-05-07T13:12:45;24.40;98.10
43089;DHT22;28709;52.030;5.652;2023-05-07T13:15:11;24.40;97.60
43089;DHT22;28709;52.030;5.652;2023-05-07T13:17:36;24.00;97.60
43089;DHT22;28709;52.030;5.652;2023-05-07T13:20:02;23.80;98.00
43089;DHT22;28709;52.030;5.652;2023-05-07T13:22:28;23.70;98.20
43089;DHT22;28709;52.030;5.652;2023-05-07T13:24:54;23.70;98.50
43089;DHT22;28709;52.030;5.652;2023-05-07T13:27:20;23.70;98.50
43089;DHT22;28709;52.030;5.652;2023-05-07T13:29:45;23.70;98.70
43089;DHT22;28709;52.030;5.652;2023-05-07T13:32:11;23.70;99.00
43089;DHT22;28709;52.030;5.652;2023-05-07T13:34:37;23.50;99.00
43089;DHT22;28709;52.030;5.652;2023-05-07T13:37:02;23.50;99.10
43089;DHT22;28709;52.030;5.652;2023-05-07T13:39:28;23.50;99.20
43089;DHT22;28709;52.030;5.652;2023-05-07T13:41:54;23.50;99.40
43089;DHT22;28709;52.030;5.652;2023-05-07T13:44:20;23.50;99.90
43089;DHT22;28709;52.030;5.652;2023-05-07T13:46:46;23.40;99.90
43089;DHT22;28709;52.030;5.652;2023-05-07T13:49:11;23.40;99.90
43089;DHT22;28709;52.030;5.652;2023-05-07T13:51:38;23.50;99.90
43089;DHT22;28709;52.030;5.652;2023-05-07T13:54:03;23.50;99.90
43089;DHT22;28709;52.030;5.652;2023-05-07T13:56:29;23.60;99.90
43089;DHT22;28709;52.030;5.652;2023-05-07T13:58:57;23.50;99.90
43089;DHT22;28709;52.030;5.652;2023-05-07T14:01:23;23.60;99.90
43089;DHT22;28709;52.030;5.652;2023-05-07T14:03:49;23.60;99.90
43089;DHT22;28709;52.030;5.652;2023-05-07T14:06:14;23.60;99.90
43089;DHT22;28709;52.030;5.652;2023-05-07T14:08:40;23.70;99.90
43089;DHT22;28709;52.030;5.652;2023-05-07T14:11:06;23.70;99.90
43089;DHT22;28709;52.030;5.652;2023-05-07T14:13:31;23.60;99.90
43089;DHT22;28709;52.030;5.652;2023-05-07T14:15:58;23.40;99.90
43089;DHT22;28709;52.030;5.652;2023-05-07T14:18:24;23.30;99.90
43089;DHT22;28709;52.030;5.652;2023-05-07T14:20:50;23.30;99.90
43089;DHT22;28709;52.030;5.652;2023-05-07T14:23:15;23.00;99.90
43089;DHT22;28709;52.030;5.652;2023-05-07T14:25:43;22.80;99.90
43089;DHT22;28709;52.030;5.652;2023-05-07T14:28:09;22.70;99.90
43089;DHT22;28709;52.030;5.652;2023-05-07T14:30:34;22.60;99.90
43089;DHT22;28709;52.030;5.652;2023-05-07T14:33:00;22.40;99.90
43089;DHT22;28709;52.030;5.652;2023-05-07T14:35:26;22.10;99.90
43089;DHT22;28709;52.030;5.652;2023-05-07T14:37:51;22.00;99.90
43089;DHT22;28709;52.030;5.652;2023-05-07T14:40:17;22.00;99.90
43089;DHT22;28709;52.030;5.652;2023-05-07T14:42:42;21.90;99.90
43089;DHT22;28709;52.030;5.652;2023-05-07T14:45:09;21.90;99.90
43089;DHT22;28709;52.030;5.652;2023-05-07T14:47:34;21.80;99.90
43089;DHT22;28709;52.030;5.652;2023-05-07T14:50:00;21.60;99.90
43089;DHT22;28709;52.030;5.652;2023-05-07T14:52:26;21.60;99.90
43089;DHT22;28709;52.030;5.652;2023-05-07T14:54:52;21.50;99.90
43089;DHT22;28709;52.030;5.652;2023-05-07T14:57:18;21.40;99.90
43089;DHT22;28709;52.030;5.652;2023-05-07T14:59:45;21.30;99.90
43089;DHT22;28709;52.030;5.652;2023-05-07T15:02:11;21.30;99.90
43089;DHT22;28709;52.030;5.652;2023-05-07T15:04:37;21.30;99.90
43089;DHT22;28709;52.030;5.652;2023-05-07T15:07:05;21.40;99.90
43089;DHT22;28709;52.030;5.652;2023-05-07T15:09:30;21.40;99.90
43089;DHT22;28709;52.030;5.652;2023-05-07T15:11:56;21.30;99.90
43089;DHT22;28709;52.030;5.652;2023-05-07T15:14:21;21.30;99.90
43089;DHT22;28709;52.030;5.652;2023-05-07T15:16:48;21.30;99.90
43089;DHT22;28709;52.030;5.652;2023-05-07T15:19:13;21.20;99.90
43089;DHT22;28709;52.030;5.652;2023-05-07T15:21:41;21.10;99.90
43089;DHT22;28709;52.030;5.652;2023-05-07T15:24:07;20.80;99.90
43089;DHT22;28709;52.030;5.652;2023-05-07T15:26:33;20.70;99.90
43089;DHT22;28709;52.030;5.652;2023-05-07T15:28:58;20.60;99.90
43089;DHT22;28709;52.030;5.652;2023-05-07T15:31:24;20.50;99.90
43089;DHT22;28709;52.030;5.652;2023-05-07T15:33:50;20.30;99.90